sensor_id;sensor_type;location;lat;lon;timestamp;temperature;humidity
11214;DHT22;5664;48.606;13.456;2023-02-25T00:01:37;19.40;96.90
11214;DHT22;5664;48.606;13.456;2023-02-25T00:04:02;19.30;96.90
11214;DHT22;5664;48.606;13.456;2023-02-25T00:06:28;19.30;96.80
11214;DHT22;5664;48.606;13.456;2023-02-25T00:08:53;19.30;96.80
11214;DHT22;5664;48.606;13.456;2023-02-25T00:11:20;19.30;96.90
11214;DHT22;5664;48.606;13.456;2023-02-25T00:13:46;19.30;96.90
11214;DHT22;5664;48.606;13.456;2023-02-25T00:16:12;19.30;96.80
11214;DHT22;5664;48.606;13.456;2023-02-25T00:18:37;19.20;96.80
11214;DHT22;5664;48.606;13.456;2023-02-25T00:21:05;19.20;96.40
11214;DHT22;5664;48.606;13.456;2023-02-25T00:23:31;19.10;95.10
11214;DHT22;5664;48.606;13.456;2023-02-25T00:26:00;19.10;95.70
11214;DHT22;5664;48.606;13.456;2023-02-25T00:28:26;19.10;96.20
11214;DHT22;5664;48.606;13.456;2023-02-25T00:30:52;19.10;96.50
11214;DHT22;5664;48.606;13.456;2023-02-25T00:33:17;19.30;96.60
11214;DHT22;5664;48.606;13.456;2023-02-25T00:35:43;19.10;96.60
11214;DHT22;5664;48.606;13.456;2023-02-25T00:38:08;19.10;96.60
11214;DHT22;5664;48.606;13.456;2023-02-25T00:40:37;19.10;96.70
11214;DHT22;5664;48.606;13.456;2023-02-25T00:43:03;19.00;96.60
11214;DHT22;5664;48.606;13.456;2023-02-25T00:45:28;19.10;96.70
11214;DHT22;5664;48.606;13.456;2023-02-25T00:47:54;19.10;96.70
11214;DHT22;5664;48.606;13.456;2023-02-25T00:50:19;19.10;96.80
11214;DHT22;5664;48.606;13.456;2023-02-25T00:52:45;19.20;96.80
11214;DHT22;5664;48.606;13.456;2023-02-25T00:55:10;19.10;96.70
11214;DHT22;5664;48.606;13.456;2023-02-25T00:57:36;19.00;96.70
11214;DHT22;5664;48.606;13.456;2023-02-25T01:00:02;19.00;96.70
11214;DHT22;5664;48.606;13.456;2023-02-25T01:02:33;19.00;96.60
11214;DHT22;5664;48.606;13.456;2023-02-25T01:04:59;19.30;96.90
11214;DHT22;5664;48.606;13.456;2023-02-25T01:07:24;19.00;96.50
11214;DHT22;5664;48.606;13.456;2023-02-25T01:09:53;19.00;96.90
11214;DHT22;5664;48.606;13.456;2023-02-25T01:12:20;19.20;96.80
11214;DHT22;5664;48.606;13.456;2023-02-25T01:14:46;19.00;96.80
11214;DHT22;5664;48.606;13.456;2023-02-25T01:17:11;19.00;96.80
11214;DHT22;5664;48.606;13.456;2023-02-25T01:19:36;19.00;96.90
11214;DHT22;5664;48.606;13.456;2023-02-25T01:22:02;19.00;96.80
11214;DHT22;5664;48.606;13.456;2023-02-25T01:24:28;19.30;96.80
11214;DHT22;5664;48.606;13.456;2023-02-25T01:26:55;19.10;96.80
11214;DHT22;5664;48.606;13.456;2023-02-25T01:29:23;19.00;96.90
11214;DHT22;5664;48.606;13.456;2023-02-25T01:31:56;19.30;96.90
11214;DHT22;5664;48.606;13.456;2023-02-25T01:34:22;19.00;96.80
11214;DHT22;5664;48.606;13.456;2023-02-25T01:36:48;19.00;96.80
11214;DHT22;5664;48.606;13.456;2023-02-25T01:39:14;19.00;96.90
11214;DHT22;5664;48.606;13.456;2023-02-25T01:41:40;19.00;96.80
11214;DHT22;5664;48.606;13.456;2023-02-25T01:46:51;19.00;96.80
11214;DHT22;5664;48.606;13.456;2023-02-25T01:49:20;19.00;96.90
11214;DHT22;5664;48.606;13.456;2023-02-25T01:51:49;19.00;96.80
11214;DHT22;5664;48.606;13.456;2023-02-25T01:54:16;19.00;96.80
11214;DHT22;5664;48.606;13.456;2023-02-25T01:56:43;19.00;96.90
11214;DHT22;5664;48.606;13.456;2023-02-25T01:59:12;19.00;96.80
11214;DHT22;5664;48.606;13.456;2023-02-25T02:01:38;19.00;96.90
11214;DHT22;5664;48.606;13.456;2023-02-25T02:04:04;19.00;97.00
11214;DHT22;5664;48.606;13.456;2023-02-25T02:06:35;19.00;97.30
11214;DHT22;5664;48.606;13.456;2023-02-25T02:09:03;18.90;96.80
11214;DHT22;5664;48.606;13.456;2023-02-25T02:11:30;19.00;97.00
11214;DHT22;5664;48.606;13.456;2023-02-25T02:13:55;19.00;97.00
11214;DHT22;5664;48.606;13.456;2023-02-25T02:18:57;18.90;96.80
11214;DHT22;5664;48.606;13.456;2023-02-25T02:26:25;19.00;96.80
11214;DHT22;5664;48.606;13.456;2023-02-25T02:31:46;18.90;96.70
11214;DHT22;5664;48.606;13.456;2023-02-25T02:36:58;18.90;96.70
11214;DHT22;5664;48.606;13.456;2023-02-25T02:39:39;18.90;96.80
11214;DHT22;5664;48.606;13.456;2023-02-25T02:47:22;19.10;96.90
11214;DHT22;5664;48.606;13.456;2023-02-25T02:49:51;18.90;96.90
11214;DHT22;5664;48.606;13.456;2023-02-25T02:52:19;19.00;96.90
11214;DHT22;5664;48.606;13.456;2023-02-25T02:54:54;19.00;96.80
11214;DHT22;5664;48.606;13.456;2023-02-25T02:57:20;18.90;96.70
11214;DHT22;5664;48.606;13.456;2023-02-25T02:59:46;18.90;96.80
11214;DHT22;5664;48.606;13.456;2023-02-25T03:02:17;18.90;96.80
11214;DHT22;5664;48.606;13.456;2023-02-25T03:04:47;18.90;96.80
11214;DHT22;5664;48.606;13.456;2023-02-25T03:07:13;18.90;96.80
11214;DHT22;5664;48.606;13.456;2023-02-25T03:09:48;18.90;96.90
11214;DHT22;5664;48.606;13.456;2023-02-25T03:12:14;18.90;96.80
11214;DHT22;5664;48.606;13.456;2023-02-25T03:14:39;18.90;96.80
11214;DHT22;5664;48.606;13.456;2023-02-25T03:17:09;19.00;96.90
11214;DHT22;5664;48.606;13.456;2023-02-25T03:19:43;18.90;96.80
11214;DHT22;5664;48.606;13.456;2023-02-25T03:22:11;18.90;96.90
11214;DHT22;5664;48.606;13.456;2023-02-25T03:24:42;18.90;96.80
11214;DHT22;5664;48.606;13.456;2023-02-25T03:27:20;18.90;96.80
11214;DHT22;5664;48.606;13.456;2023-02-25T03:29:47;18.90;96.90
11214;DHT22;5664;48.606;13.456;2023-02-25T03:32:12;19.00;97.30
11214;DHT22;5664;48.606;13.456;2023-02-25T03:34:43;18.90;96.90
11214;DHT22;5664;48.606;13.456;2023-02-25T03:37:21;18.90;96.90
11214;DHT22;5664;48.606;13.456;2023-02-25T03:39:49;18.90;96.80
11214;DHT22;5664;48.606;13.456;2023-02-25T03:42:18;19.20;97.00
11214;DHT22;5664;48.606;13.456;2023-02-25T03:44:45;18.90;96.90
11214;DHT22;5664;48.606;13.456;2023-02-25T03:47:11;18.90;97.00
11214;DHT22;5664;48.606;13.456;2023-02-25T03:49:42;18.90;97.00
11214;DHT22;5664;48.606;13.456;2023-02-25T03:52:09;19.00;96.90
11214;DHT22;5664;48.606;13.456;2023-02-25T03:54:36;19.10;97.10
11214;DHT22;5664;48.606;13.456;2023-02-25T03:57:01;18.90;97.00
11214;DHT22;5664;48.606;13.456;2023-02-25T03:59:27;18.80;97.10
11214;DHT22;5664;48.606;13.456;2023-02-25T04:01:52;18.90;97.10
11214;DHT22;5664;48.606;13.456;2023-02-25T04:04:18;19.10;97.10
11214;DHT22;5664;48.606;13.456;2023-02-25T04:06:44;18.80;97.00
11214;DHT22;5664;48.606;13.456;2023-02-25T04:09:09;18.80;96.90
11214;DHT22;5664;48.606;13.456;2023-02-25T04:11:35;18.90;96.90
11214;DHT22;5664;48.606;13.456;2023-02-25T04:14:00;19.00;96.80
11214;DHT22;5664;48.606;13.456;2023-02-25T04:16:26;18.90;96.80
11214;DHT22;5664;48.606;13.456;2023-02-25T04:18:51;18.80;96.80
11214;DHT22;5664;48.606;13.456;2023-02-25T04:21:27;18.90;96.90
11214;DHT22;5664;48.606;13.456;2023-02-25T04:23:54;18.80;96.70
11214;DHT22;5664;48.606;13.456;2023-02-25T04:26:19;18.80;96.90
11214;DHT22;5664;48.606;13.456;2023-02-25T04:28:45;18.80;97.00
11214;DHT22;5664;48.606;13.456;2023-02-25T04:31:10;18.80;97.00
11214;DHT22;5664;48.606;13.456;2023-02-25T04:33:36;18.80;96.80
11214;DHT22;5664;48.606;13.456;2023-02-25T04:36:01;18.90;96.90
11214;DHT22;5664;48.606;13.456;2023-02-25T04:38:27;18.80;96.90
11214;DHT22;5664;48.606;13.456;2023-02-25T04:40:52;18.80;97.00
11214;DHT22;5664;48.606;13.456;2023-02-25T04:43:18;18.80;96.90
11214;DHT22;5664;48.606;13.456;2023-02-25T04:45:43;18.90;96.90
11214;DHT22;5664;48.606;13.456;2023-02-25T04:48:09;18.90;96.90
11214;DHT22;5664;48.606;13.456;2023-02-25T04:53:00;18.80;96.50
11214;DHT22;5664;48.606;13.456;2023-02-25T04:55:26;18.80;96.80
11214;DHT22;5664;48.606;13.456;2023-02-25T04:57:52;18.90;96.80
11214;DHT22;5664;48.606;13.456;2023-02-25T05:00:18;18.90;96.80
11214;DHT22;5664;48.606;13.456;2023-02-25T05:02:47;18.80;96.90
11214;DHT22;5664;48.606;13.456;2023-02-25T05:05:13;18.90;96.80
11214;DHT22;5664;48.606;13.456;2023-02-25T05:07:38;18.90;96.80
11214;DHT22;5664;48.606;13.456;2023-02-25T05:10:05;18.80;96.70
11214;DHT22;5664;48.606;13.456;2023-02-25T05:12:30;18.80;97.70
11214;DHT22;5664;48.606;13.456;2023-02-25T05:14:56;18.80;96.70
11214;DHT22;5664;48.606;13.456;2023-02-25T05:17:21;18.80;96.70
11214;DHT22;5664;48.606;13.456;2023-02-25T05:19:47;19.00;96.90
11214;DHT22;5664;48.606;13.456;2023-02-25T05:22:12;18.80;96.80
11214;DHT22;5664;48.606;13.456;2023-02-25T05:24:38;18.90;96.80
11214;DHT22;5664;48.606;13.456;2023-02-25T05:27:03;18.80;97.00
11214;DHT22;5664;48.606;13.456;2023-02-25T05:29:34;18.80;97.00
11214;DHT22;5664;48.606;13.456;2023-02-25T05:31:59;18.80;96.90
11214;DHT22;5664;48.606;13.456;2023-02-25T05:34:25;18.80;96.90
11214;DHT22;5664;48.606;13.456;2023-02-25T05:36:50;19.30;97.20
11214;DHT22;5664;48.606;13.456;2023-02-25T05:39:16;18.80;96.90
11214;DHT22;5664;48.606;13.456;2023-02-25T05:41:41;18.80;96.90
11214;DHT22;5664;48.606;13.456;2023-02-25T05:44:08;18.80;96.90
11214;DHT22;5664;48.606;13.456;2023-02-25T05:46:34;18.90;96.90
11214;DHT22;5664;48.606;13.456;2023-02-25T05:48:59;18.90;97.90
11214;DHT22;5664;48.606;13.456;2023-02-25T05:51:25;18.90;97.00
11214;DHT22;5664;48.606;13.456;2023-02-25T05:53:50;18.80;96.90
11214;DHT22;5664;48.606;13.456;2023-02-25T05:56:18;18.80;96.90
11214;DHT22;5664;48.606;13.456;2023-02-25T05:58:43;18.80;96.90
11214;DHT22;5664;48.606;13.456;2023-02-25T06:01:22;18.80;96.90
11214;DHT22;5664;48.606;13.456;2023-02-25T06:03:48;19.20;97.00
11214;DHT22;5664;48.606;13.456;2023-02-25T06:06:15;19.00;97.10
11214;DHT22;5664;48.606;13.456;2023-02-25T06:08:41;18.90;97.00
11214;DHT22;5664;48.606;13.456;2023-02-25T06:11:08;18.90;96.90
11214;DHT22;5664;48.606;13.456;2023-02-25T06:13:34;19.00;96.90
11214;DHT22;5664;48.606;13.456;2023-02-25T06:16:03;18.90;97.00
11214;DHT22;5664;48.606;13.456;2023-02-25T06:18:29;18.80;96.70
11214;DHT22;5664;48.606;13.456;2023-02-25T06:20:54;18.90;96.70
11214;DHT22;5664;48.606;13.456;2023-02-25T06:23:20;18.90;96.80
11214;DHT22;5664;48.606;13.456;2023-02-25T06:25:45;18.90;96.90
11214;DHT22;5664;48.606;13.456;2023-02-25T06:28:11;18.90;96.80
11214;DHT22;5664;48.606;13.456;2023-02-25T06:30:36;18.90;96.80
11214;DHT22;5664;48.606;13.456;2023-02-25T06:33:02;18.90;96.80
11214;DHT22;5664;48.606;13.456;2023-02-25T06:35:27;18.90;96.80
11214;DHT22;5664;48.606;13.456;2023-02-25T06:37:56;18.90;96.80
11214;DHT22;5664;48.606;13.456;2023-02-25T06:40:22;18.90;96.70
11214;DHT22;5664;48.606;13.456;2023-02-25T06:42:48;19.10;96.90
11214;DHT22;5664;48.606;13.456;2023-02-25T06:45:13;19.10;96.70
11214;DHT22;5664;48.606;13.456;2023-02-25T06:47:39;18.90;96.50
11214;DHT22;5664;48.606;13.456;2023-02-25T06:50:05;18.90;96.40
11214;DHT22;5664;48.606;13.456;2023-02-25T06:52:30;18.90;96.50
11214;DHT22;5664;48.606;13.456;2023-02-25T06:54:56;18.90;96.50
11214;DHT22;5664;48.606;13.456;2023-02-25T06:57:21;18.90;96.60
11214;DHT22;5664;48.606;13.456;2023-02-25T06:59:47;19.20;96.50
11214;DHT22;5664;48.606;13.456;2023-02-25T07:02:12;19.00;96.50
11214;DHT22;5664;48.606;13.456;2023-02-25T07:04:38;19.10;96.40
11214;DHT22;5664;48.606;13.456;2023-02-25T07:07:04;18.90;96.40
11214;DHT22;5664;48.606;13.456;2023-02-25T07:09:29;19.00;96.80
11214;DHT22;5664;48.606;13.456;2023-02-25T07:11:55;18.90;95.60
11214;DHT22;5664;48.606;13.456;2023-02-25T07:14:21;19.00;94.90
11214;DHT22;5664;48.606;13.456;2023-02-25T07:16:46;19.00;94.10
11214;DHT22;5664;48.606;13.456;2023-02-25T07:19:12;19.10;94.10
11214;DHT22;5664;48.606;13.456;2023-02-25T07:21:39;19.00;94.10
11214;DHT22;5664;48.606;13.456;2023-02-25T07:24:04;19.00;94.30
11214;DHT22;5664;48.606;13.456;2023-02-25T07:26:30;18.90;94.30
11214;DHT22;5664;48.606;13.456;2023-02-25T07:28:56;19.00;94.50
11214;DHT22;5664;48.606;13.456;2023-02-25T07:31:22;19.00;94.40
11214;DHT22;5664;48.606;13.456;2023-02-25T07:33:47;18.90;93.90
11214;DHT22;5664;48.606;13.456;2023-02-25T07:36:13;18.90;94.10
11214;DHT22;5664;48.606;13.456;2023-02-25T07:38:39;18.90;94.30
11214;DHT22;5664;48.606;13.456;2023-02-25T07:41:05;18.90;94.40
11214;DHT22;5664;48.606;13.456;2023-02-25T07:43:31;18.90;94.20
11214;DHT22;5664;48.606;13.456;2023-02-25T07:45:57;18.90;94.40
11214;DHT22;5664;48.606;13.456;2023-02-25T07:48:22;18.90;94.70
11214;DHT22;5664;48.606;13.456;2023-02-25T07:50:48;18.90;94.60
11214;DHT22;5664;48.606;13.456;2023-02-25T07:53:13;18.90;94.70
11214;DHT22;5664;48.606;13.456;2023-02-25T07:55:41;18.90;94.60
11214;DHT22;5664;48.606;13.456;2023-02-25T07:58:07;18.90;94.50
11214;DHT22;5664;48.606;13.456;2023-02-25T08:00:32;19.10;94.70
11214;DHT22;5664;48.606;13.456;2023-02-25T08:02:58;19.00;94.70
11214;DHT22;5664;48.606;13.456;2023-02-25T08:05:23;19.00;94.80
11214;DHT22;5664;48.606;13.456;2023-02-25T08:07:49;19.00;94.60
11214;DHT22;5664;48.606;13.456;2023-02-25T08:10:15;19.00;94.40
11214;DHT22;5664;48.606;13.456;2023-02-25T08:12:41;19.00;94.40
11214;DHT22;5664;48.606;13.456;2023-02-25T08:15:06;19.00;94.60
11214;DHT22;5664;48.606;13.456;2023-02-25T08:17:35;19.00;94.40
11214;DHT22;5664;48.606;13.456;2023-02-25T08:20:00;18.90;94.20
11214;DHT22;5664;48.606;13.456;2023-02-25T08:22:26;19.00;94.70
11214;DHT22;5664;48.606;13.456;2023-02-25T08:24:51;19.00;94.80
11214;DHT22;5664;48.606;13.456;2023-02-25T08:27:17;19.00;94.90
11214;DHT22;5664;48.606;13.456;2023-02-25T08:29:42;19.00;94.80
11214;DHT22;5664;48.606;13.456;2023-02-25T08:32:08;19.00;95.00
11214;DHT22;5664;48.606;13.456;2023-02-25T08:34:33;18.90;95.00
11214;DHT22;5664;48.606;13.456;2023-02-25T08:36:59;18.90;95.10
11214;DHT22;5664;48.606;13.456;2023-02-25T08:39:24;18.90;95.00
11214;DHT22;5664;48.606;13.456;2023-02-25T08:41:50;18.90;95.10
11214;DHT22;5664;48.606;13.456;2023-02-25T08:44:15;19.10;95.10
11214;DHT22;5664;48.606;13.456;2023-02-25T08:46:44;19.10;95.30
11214;DHT22;5664;48.606;13.456;2023-02-25T08:49:10;18.90;95.40
11214;DHT22;5664;48.606;13.456;2023-02-25T08:51:35;18.90;95.50
11214;DHT22;5664;48.606;13.456;2023-02-25T08:54:04;19.00;95.60
11214;DHT22;5664;48.606;13.456;2023-02-25T08:56:31;18.90;95.60
11214;DHT22;5664;48.606;13.456;2023-02-25T08:58:56;18.80;95.50
11214;DHT22;5664;48.606;13.456;2023-02-25T09:01:22;18.90;95.60
11214;DHT22;5664;48.606;13.456;2023-02-25T09:03:47;18.90;95.60
11214;DHT22;5664;48.606;13.456;2023-02-25T09:06:23;18.90;95.60
11214;DHT22;5664;48.606;13.456;2023-02-25T09:08:50;18.90;95.90
11214;DHT22;5664;48.606;13.456;2023-02-25T09:11:16;18.80;96.00
11214;DHT22;5664;48.606;13.456;2023-02-25T09:13:42;18.90;96.10
11214;DHT22;5664;48.606;13.456;2023-02-25T09:16:07;19.00;96.30
11214;DHT22;5664;48.606;13.456;2023-02-25T09:18:33;18.80;96.10
11214;DHT22;5664;48.606;13.456;2023-02-25T09:20:58;18.90;96.20
11214;DHT22;5664;48.606;13.456;2023-02-25T09:23:24;18.80;96.10
11214;DHT22;5664;48.606;13.456;2023-02-25T09:25:49;18.90;96.30
11214;DHT22;5664;48.606;13.456;2023-02-25T09:28:15;18.80;96.30
11214;DHT22;5664;48.606;13.456;2023-02-25T09:30:43;18.80;96.30
11214;DHT22;5664;48.606;13.456;2023-02-25T09:33:09;19.10;96.50
11214;DHT22;5664;48.606;13.456;2023-02-25T09:35:34;19.00;96.50
11214;DHT22;5664;48.606;13.456;2023-02-25T09:38:00;18.80;96.50
11214;DHT22;5664;48.606;13.456;2023-02-25T09:40:25;18.80;96.60
11214;DHT22;5664;48.606;13.456;2023-02-25T09:43:09;18.80;96.70
11214;DHT22;5664;48.606;13.456;2023-02-25T09:45:40;18.80;96.50
11214;DHT22;5664;48.606;13.456;2023-02-25T09:48:32;18.80;96.50
11214;DHT22;5664;48.606;13.456;2023-02-25T09:50:59;18.80;96.70
11214;DHT22;5664;48.606;13.456;2023-02-25T09:53:32;18.80;96.70
11214;DHT22;5664;48.606;13.456;2023-02-25T09:55:59;18.80;96.60
11214;DHT22;5664;48.606;13.456;2023-02-25T09:58:34;18.80;96.50
11214;DHT22;5664;48.606;13.456;2023-02-25T10:03:53;18.70;95.50
11214;DHT22;5664;48.606;13.456;2023-02-25T10:11:23;18.70;91.90
11214;DHT22;5664;48.606;13.456;2023-02-25T10:16:27;18.40;91.10
11214;DHT22;5664;48.606;13.456;2023-02-25T10:19:06;18.40;91.20
11214;DHT22;5664;48.606;13.456;2023-02-25T10:21:37;18.20;90.90
11214;DHT22;5664;48.606;13.456;2023-02-25T10:24:27;18.50;91.00
11214;DHT22;5664;48.606;13.456;2023-02-25T10:26:58;18.20;90.60
11214;DHT22;5664;48.606;13.456;2023-02-25T10:29:41;18.30;90.50
11214;DHT22;5664;48.606;13.456;2023-02-25T10:32:27;18.10;90.40
11214;DHT22;5664;48.606;13.456;2023-02-25T10:34:55;18.00;90.10
11214;DHT22;5664;48.606;13.456;2023-02-25T10:37:29;18.20;90.00
11214;DHT22;5664;48.606;13.456;2023-02-25T10:39:57;17.90;89.60
11214;DHT22;5664;48.606;13.456;2023-02-25T10:42:23;18.10;84.00
11214;DHT22;5664;48.606;13.456;2023-02-25T10:44:49;18.00;84.80
11214;DHT22;5664;48.606;13.456;2023-02-25T10:47:25;17.90;85.70
11214;DHT22;5664;48.606;13.456;2023-02-25T10:50:09;17.80;85.80
11214;DHT22;5664;48.606;13.456;2023-02-25T10:52:35;17.80;85.60
11214;DHT22;5664;48.606;13.456;2023-02-25T10:55:23;17.90;87.70
11214;DHT22;5664;48.606;13.456;2023-02-25T10:57:49;17.90;90.40
11214;DHT22;5664;48.606;13.456;2023-02-25T11:00:28;17.90;92.10
11214;DHT22;5664;48.606;13.456;2023-02-25T11:02:54;17.80;92.50
11214;DHT22;5664;48.606;13.456;2023-02-25T11:05:29;17.70;91.00
11214;DHT22;5664;48.606;13.456;2023-02-25T11:10:21;17.70;90.90
11214;DHT22;5664;48.606;13.456;2023-02-25T11:12:49;18.00;91.90
11214;DHT22;5664;48.606;13.456;2023-02-25T11:15:18;17.80;92.70
11214;DHT22;5664;48.606;13.456;2023-02-25T11:17:54;17.70;92.90
11214;DHT22;5664;48.606;13.456;2023-02-25T11:20:26;17.70;93.50
11214;DHT22;5664;48.606;13.456;2023-02-25T11:22:53;17.80;93.00
11214;DHT22;5664;48.606;13.456;2023-02-25T11:25:19;17.90;93.40
11214;DHT22;5664;48.606;13.456;2023-02-25T11:27:46;18.00;93.80
11214;DHT22;5664;48.606;13.456;2023-02-25T11:30:19;17.80;93.80
11214;DHT22;5664;48.606;13.456;2023-02-25T11:32:49;17.90;94.10
11214;DHT22;5664;48.606;13.456;2023-02-25T11:35:30;17.90;94.10
11214;DHT22;5664;48.606;13.456;2023-02-25T11:37:56;17.90;94.20
11214;DHT22;5664;48.606;13.456;2023-02-25T11:40:30;17.90;94.50
11214;DHT22;5664;48.606;13.456;2023-02-25T11:43:07;17.90;94.40
11214;DHT22;5664;48.606;13.456;2023-02-25T11:45:38;17.90;94.50
11214;DHT22;5664;48.606;13.456;2023-02-25T11:48:12;18.00;94.70
11214;DHT22;5664;48.606;13.456;2023-02-25T11:50:50;18.10;94.80
11214;DHT22;5664;48.606;13.456;2023-02-25T12:01:14;18.00;94.80
11214;DHT22;5664;48.606;13.456;2023-02-25T12:03:51;18.00;94.80
11214;DHT22;5664;48.606;13.456;2023-02-25T12:06:24;18.00;95.00
11214;DHT22;5664;48.606;13.456;2023-02-25T12:19:15;18.00;95.20
11214;DHT22;5664;48.606;13.456;2023-02-25T12:32:17;18.30;95.20
11214;DHT22;5664;48.606;13.456;2023-02-25T12:37:21;18.10;95.10
11214;DHT22;5664;48.606;13.456;2023-02-25T12:39:54;18.20;95.20
11214;DHT22;5664;48.606;13.456;2023-02-25T12:45:19;18.10;95.30
11214;DHT22;5664;48.606;13.456;2023-02-25T12:52:49;18.40;95.20
11214;DHT22;5664;48.606;13.456;2023-02-25T13:00:35;18.20;95.00
11214;DHT22;5664;48.606;13.456;2023-02-25T13:05:49;18.20;95.00
11214;DHT22;5664;48.606;13.456;2023-02-25T13:13:52;18.20;94.50
11214;DHT22;5664;48.606;13.456;2023-02-25T13:19:17;18.20;94.20
11214;DHT22;5664;48.606;13.456;2023-02-25T13:27:33;18.20;94.50
11214;DHT22;5664;48.606;13.456;2023-02-25T13:38:29;18.20;94.60
11214;DHT22;5664;48.606;13.456;2023-02-25T13:43:57;18.20;94.50
11214;DHT22;5664;48.606;13.456;2023-02-25T13:49:00;18.20;94.60
11214;DHT22;5664;48.606;13.456;2023-02-25T13:51:28;18.20;94.60
11214;DHT22;5664;48.606;13.456;2023-02-25T13:59:19;18.20;94.20
11214;DHT22;5664;48.606;13.456;2023-02-25T14:12:34;18.20;94.10
11214;DHT22;5664;48.606;13.456;2023-02-25T14:22:54;18.20;94.10
11214;DHT22;5664;48.606;13.456;2023-02-25T14:25:24;18.40;94.20
11214;DHT22;5664;48.606;13.456;2023-02-25T14:27:58;18.50;94.30
11214;DHT22;5664;48.606;13.456;2023-02-25T14:33:28;18.20;94.30
11214;DHT22;5664;48.606;13.456;2023-02-25T14:38:36;18.30;94.00
11214;DHT22;5664;48.606;13.456;2023-02-25T14:43:36;18.20;94.10
11214;DHT22;5664;48.606;13.456;2023-02-25T15:01:09;18.20;94.20
11214;DHT22;5664;48.606;13.456;2023-02-25T15:03:48;18.20;94.10
11214;DHT22;5664;48.606;13.456;2023-02-25T15:21:44;18.20;94.50
11214;DHT22;5664;48.606;13.456;2023-02-25T15:26:53;18.20;94.70
11214;DHT22;5664;48.606;13.456;2023-02-25T15:31:58;18.20;94.80
11214;DHT22;5664;48.606;13.456;2023-02-25T15:34:33;18.20;94.50
11214;DHT22;5664;48.606;13.456;2023-02-25T15:37:16;18.20;94.60
11214;DHT22;5664;48.606;13.456;2023-02-25T15:42:09;18.40;94.70
11214;DHT22;5664;48.606;13.456;2023-02-25T15:44:39;18.30;94.60
11214;DHT22;5664;48.606;13.456;2023-02-25T15:47:17;18.20;94.70
11214;DHT22;5664;48.606;13.456;2023-02-25T15:49:44;18.20;94.60
11214;DHT22;5664;48.606;13.456;2023-02-25T15:52:10;18.20;94.60
11214;DHT22;5664;48.606;13.456;2023-02-25T15:59:52;18.20;94.60
11214;DHT22;5664;48.606;13.456;2023-02-25T16:07:33;18.20;94.70
11214;DHT22;5664;48.606;13.456;2023-02-25T16:10:02;18.30;94.80
11214;DHT22;5664;48.606;13.456;2023-02-25T16:12:29;18.20;94.70
11214;DHT22;5664;48.606;13.456;2023-02-25T16:14:55;18.30;94.70
11214;DHT22;5664;48.606;13.456;2023-02-25T16:17:23;18.20;94.60
11214;DHT22;5664;48.606;13.456;2023-02-25T16:19:57;18.40;94.80
11214;DHT22;5664;48.606;13.456;2023-02-25T16:22:25;18.30;94.70
11214;DHT22;5664;48.606;13.456;2023-02-25T16:24:52;18.30;94.70
11214;DHT22;5664;48.606;13.456;2023-02-25T16:27:28;18.20;94.70
11214;DHT22;5664;48.606;13.456;2023-02-25T16:30:14;18.20;94.60
11214;DHT22;5664;48.606;13.456;2023-02-25T16:35:31;18.20;94.70
11214;DHT22;5664;48.606;13.456;2023-02-25T16:37:57;18.20;94.90
11214;DHT22;5664;48.606;13.456;2023-02-25T16:40:34;18.20;94.90
11214;DHT22;5664;48.606;13.456;2023-02-25T16:43:00;18.20;94.80
11214;DHT22;5664;48.606;13.456;2023-02-25T16:45:40;18.20;94.80
11214;DHT22;5664;48.606;13.456;2023-02-25T16:48:07;18.20;94.80
11214;DHT22;5664;48.606;13.456;2023-02-25T16:50:38;18.20;94.90
11214;DHT22;5664;48.606;13.456;2023-02-25T16:53:04;18.20;94.90
11214;DHT22;5664;48.606;13.456;2023-02-25T16:55:34;18.30;95.00
11214;DHT22;5664;48.606;13.456;2023-02-25T16:58:03;18.40;95.00
11214;DHT22;5664;48.606;13.456;2023-02-25T17:00:29;18.20;95.00
11214;DHT22;5664;48.606;13.456;2023-02-25T17:02:57;18.20;95.00
11214;DHT22;5664;48.606;13.456;2023-02-25T17:05:31;18.30;95.00
11214;DHT22;5664;48.606;13.456;2023-02-25T17:07:58;18.20;95.00
11214;DHT22;5664;48.606;13.456;2023-02-25T17:10:26;18.20;95.10
11214;DHT22;5664;48.606;13.456;2023-02-25T17:12:52;18.20;95.10
11214;DHT22;5664;48.606;13.456;2023-02-25T17:15:19;18.20;95.20
11214;DHT22;5664;48.606;13.456;2023-02-25T17:17:45;18.30;95.20
11214;DHT22;5664;48.606;13.456;2023-02-25T17:20:15;18.30;95.10
11214;DHT22;5664;48.606;13.456;2023-02-25T17:22:42;18.20;94.80
11214;DHT22;5664;48.606;13.456;2023-02-25T17:25:11;18.20;95.00
11214;DHT22;5664;48.606;13.456;2023-02-25T17:27:39;18.20;95.00
11214;DHT22;5664;48.606;13.456;2023-02-25T17:30:10;18.20;94.90
11214;DHT22;5664;48.606;13.456;2023-02-25T17:32:54;18.20;95.20
11214;DHT22;5664;48.606;13.456;2023-02-25T17:35:24;18.20;95.00
11214;DHT22;5664;48.606;13.456;2023-02-25T17:37:50;18.20;95.10
11214;DHT22;5664;48.606;13.456;2023-02-25T17:40:15;18.30;95.20
11214;DHT22;5664;48.606;13.456;2023-02-25T17:42:41;18.20;95.30
11214;DHT22;5664;48.606;13.456;2023-02-25T17:47:52;18.20;95.30
11214;DHT22;5664;48.606;13.456;2023-02-25T17:50:24;18.30;95.30
11214;DHT22;5664;48.606;13.456;2023-02-25T17:52:51;18.20;95.30
11214;DHT22;5664;48.606;13.456;2023-02-25T17:55:27;18.40;95.40
11214;DHT22;5664;48.606;13.456;2023-02-25T17:57:55;18.20;95.40
11214;DHT22;5664;48.606;13.456;2023-02-25T18:00:23;18.20;95.30
11214;DHT22;5664;48.606;13.456;2023-02-25T18:03:05;18.20;95.30
11214;DHT22;5664;48.606;13.456;2023-02-25T18:05:32;18.20;95.40
11214;DHT22;5664;48.606;13.456;2023-02-25T18:08:15;18.20;95.50
11214;DHT22;5664;48.606;13.456;2023-02-25T18:13:33;18.20;95.40
11214;DHT22;5664;48.606;13.456;2023-02-25T18:18:33;18.20;95.40
11214;DHT22;5664;48.606;13.456;2023-02-25T18:21:00;18.20;95.60
11214;DHT22;5664;48.606;13.456;2023-02-25T18:23:26;18.40;95.70
11214;DHT22;5664;48.606;13.456;2023-02-25T18:28:36;18.20;95.50
11214;DHT22;5664;48.606;13.456;2023-02-25T18:31:03;18.20;95.60
11214;DHT22;5664;48.606;13.456;2023-02-25T18:33:28;18.20;96.40
11214;DHT22;5664;48.606;13.456;2023-02-25T18:35:54;18.20;95.50
11214;DHT22;5664;48.606;13.456;2023-02-25T18:38:23;18.20;95.60
11214;DHT22;5664;48.606;13.456;2023-02-25T18:40:49;18.20;95.50
11214;DHT22;5664;48.606;13.456;2023-02-25T18:43:16;18.20;95.60
11214;DHT22;5664;48.606;13.456;2023-02-25T18:45:43;18.20;95.50
11214;DHT22;5664;48.606;13.456;2023-02-25T18:48:08;18.20;95.50
11214;DHT22;5664;48.606;13.456;2023-02-25T18:50:35;18.20;95.50
11214;DHT22;5664;48.606;13.456;2023-02-25T18:53:00;18.20;95.50
11214;DHT22;5664;48.606;13.456;2023-02-25T18:55:27;18.30;95.60
11214;DHT22;5664;48.606;13.456;2023-02-25T18:57:53;18.30;95.60
11214;DHT22;5664;48.606;13.456;2023-02-25T19:00:19;18.20;95.60
11214;DHT22;5664;48.606;13.456;2023-02-25T19:05:14;18.20;95.60